Honolulu, HI

5:49 PM HST on January 25, 2015 (GMT -1000)
Pacific Heights | Change Station
CLOSE
Current Station
Personal Weather Station
Location: Honolulu, HI
Elevation: 528 ft
Nearby Weather Stations
Active Advisory: High Surf Advisory

Elev 528 ft 21.33 °N, 157.84 °W | Updated 2 seconds ago

Scattered Clouds
Scattered Clouds
66.4 °F
Feels Like 66.4 °F
N
4.0
Wind Variable Wind from East
Gusts 17.0 mph

Today
High -- | Low -- °F
--% Chance of Precip.
Yesterday
High -- | Low -- °F
Precip. -- in
7:10 AM 6:16 PM
Waxing Crescent, 38% visible
Pressure 29.96 in
Visibility 10.0 miles
Clouds Few 3000 ft
Scattered Clouds 6000 ft
Dew Point 62 °F
Humidity 87%
Rainfall 0.00 in
Snow Depth Not available.
UV 1 out of 12
Pollen Not available.
Air Quality Not available.
Flu Activity Not available.
METAR PHNL 260253Z 05014G25KT 10SM FEW030 SCT060 23/16 A2996 RMK AO2 SLP146 T02280161 55004

More Conditions Fewer Conditions

Pressure 29.96 in
Visibility 10.0 miles
Clouds Few 3000 ft
Scattered Clouds 6000 ft
Dew Point 62 °F
Humidity 87%
Rainfall 0.00 in
Snow Depth Not available.
UV 1 out of 12
Pollen Not available.
Air Quality Not available.
Flu Activity Not available.
METAR PHNL 260253Z 05014G25KT 10SM FEW030 SCT060 23/16 A2996 RMK AO2 SLP146 T02280161 55004

More Conditions Fewer Conditions

10-Day Weather Forecast

Almanac

Astronomy

Jan. 25, 2015 Rise Set
Actual Time
Civil Twilight
Nautical Twilight
Astronomical Twilight
Moon
Length of Visible Light
Length of Day
Tomorrow will be .
, % of the Moon is Illuminated

Today's Extremes

State Highs State Lows

Community

WunderPhotos

Upload Photos

1,790,106 photos uploaded!

WunderBlogs® & News

Nearby

Air Quality

  Air Quality AQ Index Pollutant
Not available.

Snow Depth

Station Depth Elevation

Earthquake Activity

City Distance Mag. Time & Date
Minimum magnitude displayed is 2.5.

Coastal Water Temperatures

Place Temperature

Nearby Weather Stations